gp del qatar

MXGP. Gajser e Jonass si aggiudicano le qualifiche in Qatar

- Lo sloveno si aggiudica la qualifica MXGP nonostante l’attacco finale di Cairoli ed il lettone quella MX2
MXGP. Gajser e Jonass si aggiudicano le qualifiche in Qatar

Non si è dovuto attendere molto per l’atteso scontro tra il Tony Cairoli caricato a dovere dal suo prorompente inizio di stagione ed il campione in carica Tim Gajser che dopo essersi scrutati nella batteria cronometrate (che ha dato ragione al messinese) si sono presi le misure nella manche di qualificazione.

In quest’ultima l’ha invece spuntata lo sloveno della Honda, che ha agguantato subito la testa del gruppo tenendola con sufficiente sicurezza sino al traguardo malgrado l’incalzare dell’ufficiale KTM che ha ricorso il battistrada nell’ultima parte di gara arrivandogli in scia al traguardo.

Terza piazza per il neo acquisto Husqvarna IceOne Gautier Paulin, che si è lasciato alle spalle Evgeny Bobryshev e Jeremy Van Horebeek, mentre Romain Febvre è rimasto 5° per oltre metà gara quando una scivolata gli ha fatto perdere definitivamente due posizioni. 15° Alex Lupino, che ha preceduto Jeffrey Herlings tornato per la prima volta in sella dopo la frattura al polso sinistro riportata ad Ottobiano.

L’olandese ha preferito non forzare ed attendere la gara ufficiale, viso che per lui è già un successo essere riuscito a portarsi in gara così poco tempo dalla sua pesante caduta.

Senza storie la MX2, che ha visto rimanere sempre al comando il pilota di punta della KTM Pauls Jonass che ha concluso con un secondo e mezzo di vantaggio su Benoit Paturel, con quattro su Jeremy Seewer e con oltre 15 su Jorge Prado.

Michele Cervellin si è stabilizzato in 12ª posizione, Ivo Monticelli si è piazzato 17° mentre Samuele Bernardini ha centrato la pole alla partenza ma è poi lentamente indietreggiato sino alla 21ª piazza ostacolato dalla rottura dei pantaloni.

 

 

Classifiche 

MXGP - Qualifying Race - Classification
Pos Nr Rider Nat. Fed. Bike Time laps Diff. First Diff. Prev. Bestlaptime in lap Speed
1 243 Gajser, Tim SLO AMZS Honda 25:05.634 13 0:00.000 0:00.000 1:47.686 4 53.3
2 222 Cairoli, Antonio ITA FMI KTM 25:06.251 13 0:00.617 0:00.617 1:47.801 4 53.2
3 21 Paulin, Gautier FRA MCM Husqvarna 25:21.543 13 0:15.909 0:15.292 1:48.394 5 52.9
4 777 Bobryshev, Evgeny RUS MFR Honda 25:23.032 13 0:17.398 0:01.489 1:48.152 5 53
5 89 Van Horebeek, Jeremy BEL FMB Yamaha 25:25.657 13 0:20.023 0:02.625 1:48.259 9 53
6 4 Tonus, Arnaud SUI FMS Yamaha 25:27.190 13 0:21.556 0:01.533 1:48.529 7 52.9
7 461 Febvre, Romain FRA FFM Yamaha 25:31.457 13 0:25.823 0:04.267 1:48.244 6 53
8 99 Anstie, Max GBR ACU Husqvarna 25:34.555 13 0:28.921 0:03.098 1:49.025 5 52.6
9 25 Desalle, Clement BEL FMB Kawasaki 25:35.896 13 0:30.262 0:01.341 1:48.980 5 52.6
10 911 Tixier, Jordi FRA FFM Kawasaki 25:37.354 13 0:31.720 0:01.458 1:49.147 4 52.6
11 12 Nagl, Maximilian GER DMSB Husqvarna 25:39.397 13 0:33.763 0:02.043 1:49.258 4 52.5
12 17 Butron, Jose ESP RFME KTM 25:48.865 13 0:43.231 0:09.468 1:49.511 5 52.4
13 259 Coldenhoff, Glenn NED KNMV KTM 25:55.268 13 0:49.634 0:06.403 1:49.952 9 52.2
14 22 Strijbos, Kevin BEL FMB Suzuki 26:05.902 13 1:00.268 0:10.634 1:50.021 6 52.1
15 77 Lupino, Alessandro ITA FMI Honda 26:07.907 13 1:02.273 0:02.005 1:50.375 4 52

 

MX2 - Qualifying Race - Classification
Pos Nr Rider Nat. Fed. Bike Time laps Diff. First Diff. Prev. Bestlaptime in lap Speed
1 41 Jonass, Pauls LAT LAMSF KTM 25:28.950 13 0:00.000 0:00.000 1:49.384 4 52.4
2 6 Paturel, Benoit FRA FFM Yamaha 25:30.269 13 0:01.319 0:01.319 1:49.128 4 52.6
3 91 Seewer, Jeremy SUI FMS Suzuki 25:33.165 13 0:04.215 0:02.896 1:49.414 5 52.4
4 61 Prado Garcia, Jorge ESP RFME KTM 25:43.972 13 0:15.022 0:10.807 1:49.617 5 52.3
5 96 Lawrence, Hunter AUS MA Suzuki 25:45.079 13 0:16.129 0:01.107 1:49.648 10 52.3
6 33 Lieber, Julien BEL FMB KTM 25:48.059 13 0:19.109 0:02.980 1:49.800 9 52.2
7 19 Kjer Olsen, Thomas DEN DMU Husqvarna 25:50.158 13 0:21.208 0:02.099 1:50.495 3 51.9
8 57 Sanayei, Darian USA AMA Kawasaki 25:55.038 13 0:26.088 0:04.880 1:50.271 4 52
9 64 Covington, Thomas USA MUL Husqvarna 25:55.516 13 0:26.566 0:00.478 1:49.863 3 52.2
10 172 Van doninck, Brent BEL FMB Yamaha 25:58.521 13 0:29.571 0:03.005 1:49.973 4 52.2
11 18 Brylyakov, Vsevolod RUS MFR Kawasaki 25:58.886 13 0:29.936 0:00.365 1:50.180 6 52.1
12 747 Cervellin, Michele ITA FMI Honda 26:02.150 13 0:33.200 0:03.264 1:50.767 4 51.8
13 161 Östlund, Alvin SWE SVEMO Yamaha 26:05.489 13 0:36.539 0:03.339 1:50.872 5 51.7
14 297 Gole, Anton SWE SVEMO Husqvarna 26:11.737 13 0:42.787 0:06.248 1:50.722 4 51.8
15 46 Pootjes, Davy NED KNMV KTM 26:19.586 13 0:50.636 0:07.849 1:50.988 6 51.7
  • Katana05, Novellara (RE)

    Orari TV?
  • zuffo7101, Piacenza (PC)

    interessante notare che il distacco le grosse e le piccole raddoppia dal giro cronometrato alla gara(da sette decimi e mezzo ad un secondo e mezzo)..significa che i salti aggiunti per creare difficoltà(al tempo villopoto si lamentò della semplicità del tracciato)non sono sempre fattibili in tranquillità&scioltezza con le piccolette
Inserisci il tuo commento